sensor_id;sensor_type;location;lat;lon;timestamp;P1;durP1;ratioP1;P2;durP2;ratioP2
15616;SDS011;7908;51.688;7.130;2023-09-19T00:01:15;14.23;;;2.67;;
15616;SDS011;7908;51.688;7.130;2023-09-19T00:03:46;10.60;;;2.60;;
15616;SDS011;7908;51.688;7.130;2023-09-19T00:06:15;8.43;;;1.97;;
15616;SDS011;7908;51.688;7.130;2023-09-19T00:08:44;11.53;;;2.70;;
15616;SDS011;7908;51.688;7.130;2023-09-19T00:11:14;6.97;;;2.10;;
15616;SDS011;7908;51.688;7.130;2023-09-19T00:13:43;10.93;;;2.63;;
15616;SDS011;7908;51.688;7.130;2023-09-19T00:16:11;12.90;;;2.50;;
15616;SDS011;7908;51.688;7.130;2023-09-19T00:18:42;11.20;;;2.90;;
15616;SDS011;7908;51.688;7.130;2023-09-19T00:21:11;10.37;;;2.57;;
15616;SDS011;7908;51.688;7.130;2023-09-19T00:23:40;8.33;;;1.97;;
15616;SDS011;7908;51.688;7.130;2023-09-19T00:26:08;7.87;;;2.40;;
15616;SDS011;7908;51.688;7.130;2023-09-19T00:28:37;7.63;;;2.10;;
15616;SDS011;7908;51.688;7.130;2023-09-19T00:31:07;11.07;;;2.57;;
15616;SDS011;7908;51.688;7.130;2023-09-19T00:33:36;6.80;;;2.20;;
15616;SDS011;7908;51.688;7.130;2023-09-19T00:36:06;8.63;;;2.37;;
15616;SDS011;7908;51.688;7.130;2023-09-19T00:38:35;8.43;;;2.00;;
15616;SDS011;7908;51.688;7.130;2023-09-19T00:41:03;9.40;;;2.33;;
15616;SDS011;7908;51.688;7.130;2023-09-19T00:43:33;9.53;;;2.50;;
15616;SDS011;7908;51.688;7.130;2023-09-19T00:46:02;8.47;;;2.33;;
15616;SDS011;7908;51.688;7.130;2023-09-19T00:48:33;12.57;;;2.10;;
15616;SDS011;7908;51.688;7.130;2023-09-19T00:51:09;13.63;;;2.67;;
15616;SDS011;7908;51.688;7.130;2023-09-19T00:53:40;8.43;;;2.33;;
15616;SDS011;7908;51.688;7.130;2023-09-19T00:56:13;10.27;;;2.53;;
15616;SDS011;7908;51.688;7.130;2023-09-19T00:58:45;8.80;;;2.20;;
15616;SDS011;7908;51.688;7.130;2023-09-19T01:01:14;8.80;;;2.23;;
15616;SDS011;7908;51.688;7.130;2023-09-19T01:03:44;11.37;;;3.27;;
15616;SDS011;7908;51.688;7.130;2023-09-19T01:06:14;9.83;;;2.50;;
15616;SDS011;7908;51.688;7.130;2023-09-19T01:08:43;7.30;;;2.30;;
15616;SDS011;7908;51.688;7.130;2023-09-19T01:11:13;12.00;;;3.77;;
15616;SDS011;7908;51.688;7.130;2023-09-19T01:13:50;9.33;;;2.37;;
15616;SDS011;7908;51.688;7.130;2023-09-19T01:16:28;9.47;;;2.17;;
15616;SDS011;7908;51.688;7.130;2023-09-19T01:19:15;13.30;;;2.90;;
15616;SDS011;7908;51.688;7.130;2023-09-19T01:22:13;10.10;;;2.50;;
15616;SDS011;7908;51.688;7.130;2023-09-19T01:24:54;11.77;;;2.87;;
15616;SDS011;7908;51.688;7.130;2023-09-19T01:27:57;7.97;;;2.37;;
15616;SDS011;7908;51.688;7.130;2023-09-19T01:30:45;8.83;;;2.10;;
15616;SDS011;7908;51.688;7.130;2023-09-19T01:33:20;13.80;;;2.80;;
15616;SDS011;7908;51.688;7.130;2023-09-19T01:35:50;12.23;;;4.47;;
15616;SDS011;7908;51.688;7.130;2023-09-19T01:38:19;12.57;;;3.00;;
15616;SDS011;7908;51.688;7.130;2023-09-19T01:40:51;15.80;;;7.27;;
15616;SDS011;7908;51.688;7.130;2023-09-19T01:43:27;17.60;;;8.03;;
15616;SDS011;7908;51.688;7.130;2023-09-19T01:46:04;18.67;;;5.33;;
15616;SDS011;7908;51.688;7.130;2023-09-19T01:48:41;10.63;;;2.40;;
15616;SDS011;7908;51.688;7.130;2023-09-19T01:51:14;9.47;;;3.17;;
15616;SDS011;7908;51.688;7.130;2023-09-19T01:53:50;12.00;;;2.57;;
15616;SDS011;7908;51.688;7.130;2023-09-19T01:56:25;8.50;;;2.53;;
15616;SDS011;7908;51.688;7.130;2023-09-19T01:59:04;12.77;;;2.53;;
15616;SDS011;7908;51.688;7.130;2023-09-19T02:01:38;9.23;;;2.10;;
15616;SDS011;7908;51.688;7.130;2023-09-19T02:04:08;10.83;;;2.30;;
15616;SDS011;7908;51.688;7.130;2023-09-19T02:06:39;9.43;;;2.40;;
15616;SDS011;7908;51.688;7.130;2023-09-19T02:09:08;9.13;;;2.10;;
15616;SDS011;7908;51.688;7.130;2023-09-19T02:11:36;8.40;;;2.30;;
15616;SDS011;7908;51.688;7.130;2023-09-19T02:14:05;10.93;;;2.50;;
15616;SDS011;7908;51.688;7.130;2023-09-19T02:16:35;10.10;;;2.30;;
15616;SDS011;7908;51.688;7.130;2023-09-19T02:19:05;10.40;;;2.67;;
15616;SDS011;7908;51.688;7.130;2023-09-19T02:21:35;10.00;;;2.60;;
15616;SDS011;7908;51.688;7.130;2023-09-19T02:24:04;13.63;;;2.30;;
15616;SDS011;7908;51.688;7.130;2023-09-19T02:26:34;9.17;;;2.40;;
15616;SDS011;7908;51.688;7.130;2023-09-19T02:29:03;9.07;;;2.50;;
15616;SDS011;7908;51.688;7.130;2023-09-19T02:31:31;10.27;;;2.23;;
15616;SDS011;7908;51.688;7.130;2023-09-19T02:34:01;9.73;;;2.47;;
15616;SDS011;7908;51.688;7.130;2023-09-19T02:36:35;11.33;;;2.50;;
15616;SDS011;7908;51.688;7.130;2023-09-19T02:39:04;10.90;;;2.60;;
15616;SDS011;7908;51.688;7.130;2023-09-19T02:41:35;12.57;;;2.60;;
15616;SDS011;7908;51.688;7.130;2023-09-19T02:44:03;10.13;;;2.80;;
15616;SDS011;7908;51.688;7.130;2023-09-19T02:46:34;10.03;;;2.13;;
15616;SDS011;7908;51.688;7.130;2023-09-19T02:49:03;7.97;;;2.33;;
15616;SDS011;7908;51.688;7.130;2023-09-19T02:51:34;10.13;;;2.80;;
15616;SDS011;7908;51.688;7.130;2023-09-19T02:54:03;10.47;;;2.10;;
15616;SDS011;7908;51.688;7.130;2023-09-19T02:56:32;12.13;;;2.30;;
15616;SDS011;7908;51.688;7.130;2023-09-19T02:59:02;7.13;;;1.93;;
15616;SDS011;7908;51.688;7.130;2023-09-19T03:01:32;7.83;;;2.30;;
15616;SDS011;7908;51.688;7.130;2023-09-19T03:04:01;10.40;;;2.57;;
15616;SDS011;7908;51.688;7.130;2023-09-19T03:06:33;11.07;;;2.30;;
15616;SDS011;7908;51.688;7.130;2023-09-19T03:09:03;11.27;;;2.10;;
15616;SDS011;7908;51.688;7.130;2023-09-19T03:11:33;13.50;;;2.17;;
15616;SDS011;7908;51.688;7.130;2023-09-19T03:14:02;10.13;;;2.20;;
15616;SDS011;7908;51.688;7.130;2023-09-19T03:16:31;8.53;;;2.10;;
15616;SDS011;7908;51.688;7.130;2023-09-19T03:19:00;7.97;;;2.40;;
15616;SDS011;7908;51.688;7.130;2023-09-19T03:21:28;9.53;;;2.37;;
15616;SDS011;7908;51.688;7.130;2023-09-19T03:23:58;9.53;;;3.27;;
15616;SDS011;7908;51.688;7.130;2023-09-19T03:26:27;9.77;;;2.53;;
15616;SDS011;7908;51.688;7.130;2023-09-19T03:28:56;7.40;;;2.10;;
15616;SDS011;7908;51.688;7.130;2023-09-19T03:31:24;10.40;;;2.30;;
15616;SDS011;7908;51.688;7.130;2023-09-19T03:33:53;9.20;;;2.30;;
15616;SDS011;7908;51.688;7.130;2023-09-19T03:36:21;12.23;;;2.20;;
15616;SDS011;7908;51.688;7.130;2023-09-19T03:38:50;9.27;;;2.57;;
15616;SDS011;7908;51.688;7.130;2023-09-19T03:41:20;10.10;;;3.50;;
15616;SDS011;7908;51.688;7.130;2023-09-19T03:43:48;9.13;;;2.33;;
15616;SDS011;7908;51.688;7.130;2023-09-19T03:46:17;11.70;;;2.40;;
15616;SDS011;7908;51.688;7.130;2023-09-19T03:48:46;10.50;;;2.30;;
15616;SDS011;7908;51.688;7.130;2023-09-19T03:51:14;7.53;;;2.10;;
15616;SDS011;7908;51.688;7.130;2023-09-19T03:53:42;8.67;;;2.30;;
15616;SDS011;7908;51.688;7.130;2023-09-19T03:56:11;10.63;;;2.30;;
15616;SDS011;7908;51.688;7.130;2023-09-19T03:58:41;9.83;;;2.53;;
15616;SDS011;7908;51.688;7.130;2023-09-19T04:01:09;6.77;;;2.27;;
15616;SDS011;7908;51.688;7.130;2023-09-19T04:03:39;9.87;;;1.87;;
15616;SDS011;7908;51.688;7.130;2023-09-19T04:06:14;13.10;;;2.10;;
15616;SDS011;7908;51.688;7.130;2023-09-19T04:08:43;8.63;;;2.10;;
15616;SDS011;7908;51.688;7.130;2023-09-19T04:11:13;9.50;;;2.20;;
15616;SDS011;7908;51.688;7.130;2023-09-19T04:13:43;14.27;;;2.47;;
15616;SDS011;7908;51.688;7.130;2023-09-19T04:16:12;9.40;;;2.90;;
15616;SDS011;7908;51.688;7.130;2023-09-19T04:18:40;7.73;;;2.10;;
15616;SDS011;7908;51.688;7.130;2023-09-19T04:21:09;9.73;;;1.93;;
15616;SDS011;7908;51.688;7.130;2023-09-19T04:23:38;10.60;;;2.43;;
15616;SDS011;7908;51.688;7.130;2023-09-19T04:26:07;8.90;;;1.93;;
15616;SDS011;7908;51.688;7.130;2023-09-19T04:28:35;10.20;;;2.30;;
15616;SDS011;7908;51.688;7.130;2023-09-19T04:31:06;9.00;;;2.10;;
15616;SDS011;7908;51.688;7.130;2023-09-19T04:33:36;8.60;;;1.90;;
15616;SDS011;7908;51.688;7.130;2023-09-19T04:36:06;10.33;;;2.47;;
15616;SDS011;7908;51.688;7.130;2023-09-19T04:38:54;12.87;;;2.27;;
15616;SDS011;7908;51.688;7.130;2023-09-19T04:41:23;6.03;;;2.00;;
15616;SDS011;7908;51.688;7.130;2023-09-19T04:43:51;9.43;;;2.60;;
15616;SDS011;7908;51.688;7.130;2023-09-19T04:46:22;8.47;;;2.30;;
15616;SDS011;7908;51.688;7.130;2023-09-19T04:48:50;9.53;;;2.30;;
15616;SDS011;7908;51.688;7.130;2023-09-19T04:51:18;8.27;;;2.37;;
15616;SDS011;7908;51.688;7.130;2023-09-19T04:53:47;8.30;;;2.23;;
15616;SDS011;7908;51.688;7.130;2023-09-19T04:56:15;9.37;;;2.40;;
15616;SDS011;7908;51.688;7.130;2023-09-19T04:58:44;8.57;;;2.30;;
15616;SDS011;7908;51.688;7.130;2023-09-19T05:01:13;9.93;;;2.40;;
15616;SDS011;7908;51.688;7.130;2023-09-19T05:03:43;8.53;;;2.40;;
15616;SDS011;7908;51.688;7.130;2023-09-19T05:06:15;8.60;;;2.23;;
15616;SDS011;7908;51.688;7.130;2023-09-19T05:08:44;7.20;;;2.33;;
15616;SDS011;7908;51.688;7.130;2023-09-19T05:11:13;15.27;;;2.33;;
15616;SDS011;7908;51.688;7.130;2023-09-19T05:13:41;12.33;;;2.40;;
15616;SDS011;7908;51.688;7.130;2023-09-19T05:16:10;8.77;;;2.20;;
15616;SDS011;7908;51.688;7.130;2023-09-19T05:18:39;10.33;;;2.50;;
15616;SDS011;7908;51.688;7.130;2023-09-19T05:21:09;11.23;;;2.40;;
15616;SDS011;7908;51.688;7.130;2023-09-19T05:23:37;7.83;;;2.20;;
15616;SDS011;7908;51.688;7.130;2023-09-19T05:26:06;9.57;;;2.60;;
15616;SDS011;7908;51.688;7.130;2023-09-19T05:28:37;10.37;;;2.63;;
15616;SDS011;7908;51.688;7.130;2023-09-19T05:31:06;7.87;;;2.10;;
15616;SDS011;7908;51.688;7.130;2023-09-19T05:33:38;12.60;;;2.73;;
15616;SDS011;7908;51.688;7.130;2023-09-19T05:36:08;11.17;;;2.80;;
15616;SDS011;7908;51.688;7.130;2023-09-19T05:38:38;11.87;;;2.40;;
15616;SDS011;7908;51.688;7.130;2023-09-19T05:41:08;12.37;;;2.90;;
15616;SDS011;7908;51.688;7.130;2023-09-19T05:43:41;8.70;;;2.30;;
15616;SDS011;7908;51.688;7.130;2023-09-19T05:46:10;8.73;;;2.73;;
15616;SDS011;7908;51.688;7.130;2023-09-19T05:48:39;4.77;;;1.70;;
15616;SDS011;7908;51.688;7.130;2023-09-19T05:51:09;9.33;;;2.20;;
15616;SDS011;7908;51.688;7.130;2023-09-19T05:53:37;7.83;;;2.53;;
15616;SDS011;7908;51.688;7.130;2023-09-19T05:56:08;11.43;;;2.43;;
15616;SDS011;7908;51.688;7.130;2023-09-19T05:58:37;10.13;;;2.77;;
15616;SDS011;7908;51.688;7.130;2023-09-19T06:01:07;15.20;;;3.07;;
15616;SDS011;7908;51.688;7.130;2023-09-19T06:03:39;11.13;;;2.63;;
15616;SDS011;7908;51.688;7.130;2023-09-19T06:06:09;8.43;;;2.27;;
15616;SDS011;7908;51.688;7.130;2023-09-19T06:08:38;13.17;;;2.30;;
15616;SDS011;7908;51.688;7.130;2023-09-19T06:11:07;8.90;;;2.33;;
15616;SDS011;7908;51.688;7.130;2023-09-19T06:13:37;8.17;;;2.40;;
15616;SDS011;7908;51.688;7.130;2023-09-19T06:16:07;8.70;;;2.17;;
15616;SDS011;7908;51.688;7.130;2023-09-19T06:18:38;13.07;;;2.60;;
15616;SDS011;7908;51.688;7.130;2023-09-19T06:21:07;7.17;;;2.33;;
15616;SDS011;7908;51.688;7.130;2023-09-19T06:23:37;11.33;;;2.70;;
15616;SDS011;7908;51.688;7.130;2023-09-19T06:26:06;9.30;;;2.80;;
15616;SDS011;7908;51.688;7.130;2023-09-19T06:28:35;10.87;;;2.30;;
15616;SDS011;7908;51.688;7.130;2023-09-19T06:31:04;5.97;;;1.90;;
15616;SDS011;7908;51.688;7.130;2023-09-19T06:33:36;8.97;;;2.50;;
15616;SDS011;7908;51.688;7.130;2023-09-19T06:36:07;10.93;;;2.43;;
15616;SDS011;7908;51.688;7.130;2023-09-19T06:38:37;6.87;;;1.97;;
15616;SDS011;7908;51.688;7.130;2023-09-19T06:41:05;8.63;;;2.63;;
15616;SDS011;7908;51.688;7.130;2023-09-19T06:43:35;7.77;;;2.20;;
15616;SDS011;7908;51.688;7.130;2023-09-19T06:46:04;8.83;;;2.50;;
15616;SDS011;7908;51.688;7.130;2023-09-19T06:48:34;9.97;;;2.80;;
15616;SDS011;7908;51.688;7.130;2023-09-19T06:51:02;10.00;;;2.63;;
15616;SDS011;7908;51.688;7.130;2023-09-19T06:53:31;11.17;;;2.50;;
15616;SDS011;7908;51.688;7.130;2023-09-19T06:56:10;7.90;;;2.30;;
15616;SDS011;7908;51.688;7.130;2023-09-19T06:58:44;12.53;;;3.07;;
15616;SDS011;7908;51.688;7.130;2023-09-19T07:01:15;8.87;;;2.73;;
15616;SDS011;7908;51.688;7.130;2023-09-19T07:03:45;9.73;;;2.50;;
15616;SDS011;7908;51.688;7.130;2023-09-19T07:06:19;6.97;;;2.23;;
15616;SDS011;7908;51.688;7.130;2023-09-19T07:08:48;9.20;;;2.53;;
15616;SDS011;7908;51.688;7.130;2023-09-19T07:11:20;9.80;;;2.27;;
15616;SDS011;7908;51.688;7.130;2023-09-19T07:13:52;11.07;;;2.50;;
15616;SDS011;7908;51.688;7.130;2023-09-19T07:16:25;7.33;;;2.10;;
15616;SDS011;7908;51.688;7.130;2023-09-19T07:18:58;9.90;;;2.60;;
15616;SDS011;7908;51.688;7.130;2023-09-19T07:21:28;10.83;;;2.77;;
15616;SDS011;7908;51.688;7.130;2023-09-19T07:23:57;10.63;;;2.67;;
15616;SDS011;7908;51.688;7.130;2023-09-19T07:26:32;12.20;;;2.57;;
15616;SDS011;7908;51.688;7.130;2023-09-19T07:29:01;10.50;;;2.20;;
15616;SDS011;7908;51.688;7.130;2023-09-19T07:31:36;9.37;;;2.17;;
15616;SDS011;7908;51.688;7.130;2023-09-19T07:34:09;10.10;;;2.67;;
15616;SDS011;7908;51.688;7.130;2023-09-19T07:36:49;13.67;;;2.53;;
15616;SDS011;7908;51.688;7.130;2023-09-19T07:39:18;11.80;;;2.90;;
15616;SDS011;7908;51.688;7.130;2023-09-19T07:41:50;9.33;;;2.30;;
15616;SDS011;7908;51.688;7.130;2023-09-19T07:44:21;11.37;;;2.93;;
15616;SDS011;7908;51.688;7.130;2023-09-19T07:46:52;12.03;;;2.50;;
15616;SDS011;7908;51.688;7.130;2023-09-19T07:49:22;7.07;;;2.40;;
15616;SDS011;7908;51.688;7.130;2023-09-19T07:51:51;9.37;;;2.90;;
15616;SDS011;7908;51.688;7.130;2023-09-19T07:54:21;14.40;;;2.83;;
15616;SDS011;7908;51.688;7.130;2023-09-19T07:56:51;13.67;;;2.87;;
15616;SDS011;7908;51.688;7.130;2023-09-19T07:59:25;17.13;;;2.90;;
15616;SDS011;7908;51.688;7.130;2023-09-19T08:01:54;10.67;;;2.80;;
15616;SDS011;7908;51.688;7.130;2023-09-19T08:04:26;13.43;;;3.50;;
15616;SDS011;7908;51.688;7.130;2023-09-19T08:06:57;8.97;;;2.73;;
15616;SDS011;7908;51.688;7.130;2023-09-19T08:09:27;13.03;;;2.97;;
15616;SDS011;7908;51.688;7.130;2023-09-19T08:12:01;10.93;;;3.20;;
15616;SDS011;7908;51.688;7.130;2023-09-19T08:14:31;6.30;;;2.63;;
15616;SDS011;7908;51.688;7.130;2023-09-19T08:17:00;14.50;;;3.17;;
15616;SDS011;7908;51.688;7.130;2023-09-19T08:19:35;9.87;;;2.43;;
15616;SDS011;7908;51.688;7.130;2023-09-19T08:22:19;10.63;;;2.70;;
15616;SDS011;7908;51.688;7.130;2023-09-19T08:24:50;8.90;;;2.97;;
15616;SDS011;7908;51.688;7.130;2023-09-19T08:27:21;6.23;;;2.23;;
15616;SDS011;7908;51.688;7.130;2023-09-19T08:29:53;9.70;;;2.67;;
15616;SDS011;7908;51.688;7.130;2023-09-19T08:32:22;12.57;;;2.73;;
15616;SDS011;7908;51.688;7.130;2023-09-19T08:34:55;12.03;;;2.80;;
15616;SDS011;7908;51.688;7.130;2023-09-19T08:37:27;8.60;;;2.37;;
15616;SDS011;7908;51.688;7.130;2023-09-19T08:39:56;8.10;;;2.10;;
15616;SDS011;7908;51.688;7.130;2023-09-19T08:42:26;9.00;;;2.60;;
15616;SDS011;7908;51.688;7.130;2023-09-19T08:44:55;11.23;;;3.30;;
15616;SDS011;7908;51.688;7.130;2023-09-19T08:47:33;7.10;;;2.40;;
15616;SDS011;7908;51.688;7.130;2023-09-19T08:50:11;9.13;;;2.50;;
15616;SDS011;7908;51.688;7.130;2023-09-19T08:52:51;9.10;;;2.50;;
15616;SDS011;7908;51.688;7.130;2023-09-19T08:55:27;9.17;;;3.07;;
15616;SDS011;7908;51.688;7.130;2023-09-19T08:58:00;9.63;;;2.53;;
15616;SDS011;7908;51.688;7.130;2023-09-19T09:00:33;11.67;;;2.73;;
15616;SDS011;7908;51.688;7.130;2023-09-19T09:03:05;9.03;;;2.63;;
15616;SDS011;7908;51.688;7.130;2023-09-19T09:05:38;7.07;;;2.40;;
15616;SDS011;7908;51.688;7.130;2023-09-19T09:08:15;10.90;;;2.43;;
15616;SDS011;7908;51.688;7.130;2023-09-19T09:10:47;7.40;;;2.53;;
15616;SDS011;7908;51.688;7.130;2023-09-19T09:13:24;7.83;;;2.63;;
15616;SDS011;7908;51.688;7.130;2023-09-19T09:15:56;8.93;;;3.00;;
15616;SDS011;7908;51.688;7.130;2023-09-19T09:18:31;10.10;;;2.53;;
15616;SDS011;7908;51.688;7.130;2023-09-19T09:21:04;5.97;;;2.30;;
15616;SDS011;7908;51.688;7.130;2023-09-19T09:23:39;11.10;;;3.10;;
15616;SDS011;7908;51.688;7.130;2023-09-19T09:26:10;11.00;;;3.20;;
15616;SDS011;7908;51.688;7.130;2023-09-19T09:28:46;10.10;;;2.80;;
15616;SDS011;7908;51.688;7.130;2023-09-19T09:31:22;10.93;;;2.77;;
15616;SDS011;7908;51.688;7.130;2023-09-19T09:33:54;10.83;;;2.83;;
15616;SDS011;7908;51.688;7.130;2023-09-19T09:36:35;11.30;;;2.80;;
15616;SDS011;7908;51.688;7.130;2023-09-19T09:39:09;10.10;;;2.67;;
15616;SDS011;7908;51.688;7.130;2023-09-19T09:41:50;7.43;;;2.40;;
15616;SDS011;7908;51.688;7.130;2023-09-19T09:44:25;9.77;;;2.93;;
15616;SDS011;7908;51.688;7.130;2023-09-19T09:47:01;12.33;;;3.00;;
15616;SDS011;7908;51.688;7.130;2023-09-19T09:49:56;10.10;;;2.20;;
15616;SDS011;7908;51.688;7.130;2023-09-19T09:55:19;7.97;;;2.10;;
15616;SDS011;7908;51.688;7.130;2023-09-19T09:57:52;9.23;;;2.40;;
15616;SDS011;7908;51.688;7.130;2023-09-19T10:00:59;10.27;;;2.40;;
15616;SDS011;7908;51.688;7.130;2023-09-19T10:03:43;9.73;;;2.47;;
15616;SDS011;7908;51.688;7.130;2023-09-19T10:06:23;11.87;;;2.30;;
15616;SDS011;7908;51.688;7.130;2023-09-19T10:09:15;9.27;;;2.30;;
15616;SDS011;7908;51.688;7.130;2023-09-19T10:12:00;8.63;;;2.47;;
15616;SDS011;7908;51.688;7.130;2023-09-19T10:14:42;9.07;;;2.23;;
15616;SDS011;7908;51.688;7.130;2023-09-19T10:17:19;6.87;;;2.43;;
15616;SDS011;7908;51.688;7.130;2023-09-19T10:19:53;4.60;;;1.93;;
15616;SDS011;7908;51.688;7.130;2023-09-19T10:22:40;11.30;;;2.80;;
15616;SDS011;7908;51.688;7.130;2023-09-19T10:25:13;7.73;;;2.20;;
15616;SDS011;7908;51.688;7.130;2023-09-19T10:27:51;7.70;;;2.17;;
15616;SDS011;7908;51.688;7.130;2023-09-19T10:30:25;8.90;;;2.47;;
15616;SDS011;7908;51.688;7.130;2023-09-19T10:33:05;8.83;;;2.30;;
15616;SDS011;7908;51.688;7.130;2023-09-19T10:35:38;8.07;;;2.10;;
15616;SDS011;7908;51.688;7.130;2023-09-19T10:38:14;8.97;;;1.80;;
15616;SDS011;7908;51.688;7.130;2023-09-19T10:40:53;9.07;;;2.50;;
15616;SDS011;7908;51.688;7.130;2023-09-19T10:43:31;7.00;;;2.07;;
15616;SDS011;7908;51.688;7.130;2023-09-19T10:46:07;8.53;;;2.00;;
15616;SDS011;7908;51.688;7.130;2023-09-19T10:48:53;6.97;;;2.10;;
15616;SDS011;7908;51.688;7.130;2023-09-19T10:51:29;8.43;;;3.10;;
15616;SDS011;7908;51.688;7.130;2023-09-19T10:54:11;8.73;;;2.33;;
15616;SDS011;7908;51.688;7.130;2023-09-19T10:56:46;9.50;;;3.00;;
15616;SDS011;7908;51.688;7.130;2023-09-19T10:59:34;6.40;;;2.40;;
15616;SDS011;7908;51.688;7.130;2023-09-19T11:02:16;9.77;;;2.73;;
15616;SDS011;7908;51.688;7.130;2023-09-19T11:04:49;7.50;;;2.20;;
15616;SDS011;7908;51.688;7.130;2023-09-19T11:07:24;8.53;;;2.77;;
15616;SDS011;7908;51.688;7.130;2023-09-19T11:09:58;8.50;;;2.67;;
15616;SDS011;7908;51.688;7.130;2023-09-19T11:12:50;8.17;;;2.30;;
15616;SDS011;7908;51.688;7.130;2023-09-19T11:24:31;12.97;;;2.13;;
15616;SDS011;7908;51.688;7.130;2023-09-19T11:27:09;6.80;;;1.90;;
15616;SDS011;7908;51.688;7.130;2023-09-19T11:29:48;6.67;;;1.80;;
15616;SDS011;7908;51.688;7.130;2023-09-19T11:33:17;8.10;;;1.83;;
15616;SDS011;7908;51.688;7.130;2023-09-19T11:36:00;8.43;;;1.87;;
15616;SDS011;7908;51.688;7.130;2023-09-19T11:41:45;9.80;;;2.17;;
15616;SDS011;7908;51.688;7.130;2023-09-19T11:44:36;8.07;;;1.90;;
15616;SDS011;7908;51.688;7.130;2023-09-19T11:47:23;3.70;;;1.90;;
15616;SDS011;7908;51.688;7.130;2023-09-19T11:50:00;7.53;;;2.77;;
15616;SDS011;7908;51.688;7.130;2023-09-19T11:52:32;8.50;;;2.40;;
15616;SDS011;7908;51.688;7.130;2023-09-19T11:55:15;10.63;;;2.37;;
15616;SDS011;7908;51.688;7.130;2023-09-19T11:57:55;7.67;;;1.83;;
15616;SDS011;7908;51.688;7.130;2023-09-19T12:00:27;5.25;;;1.90;;
15616;SDS011;7908;51.688;7.130;2023-09-19T12:03:10;6.50;;;1.88;;
15616;SDS011;7908;51.688;7.130;2023-09-19T12:05:48;6.93;;;2.07;;
15616;SDS011;7908;51.688;7.130;2023-09-19T12:08:35;7.50;;;2.03;;
15616;SDS011;7908;51.688;7.130;2023-09-19T12:11:18;6.55;;;1.95;;
15616;SDS011;7908;51.688;7.130;2023-09-19T12:13:59;6.20;;;1.90;;
15616;SDS011;7908;51.688;7.130;2023-09-19T12:16:31;4.07;;;1.80;;
15616;SDS011;7908;51.688;7.130;2023-09-19T12:19:22;7.07;;;2.28;;
15616;SDS011;7908;51.688;7.130;2023-09-19T12:22:00;8.27;;;2.78;;
15616;SDS011;7908;51.688;7.130;2023-09-19T12:24:36;6.53;;;1.98;;
15616;SDS011;7908;51.688;7.130;2023-09-19T12:27:13;3.88;;;1.67;;
15616;SDS011;7908;51.688;7.130;2023-09-19T12:29:45;5.05;;;1.90;;
15616;SDS011;7908;51.688;7.130;2023-09-19T12:32:33;5.13;;;2.00;;
15616;SDS011;7908;51.688;7.130;2023-09-19T12:35:06;3.75;;;1.45;;
15616;SDS011;7908;51.688;7.130;2023-09-19T12:37:42;5.00;;;2.05;;
15616;SDS011;7908;51.688;7.130;2023-09-19T12:40:22;9.70;;;2.20;;
15616;SDS011;7908;51.688;7.130;2023-09-19T12:43:04;8.48;;;2.20;;
15616;SDS011;7908;51.688;7.130;2023-09-19T12:45:42;4.97;;;1.63;;
15616;SDS011;7908;51.688;7.130;2023-09-19T12:48:25;5.88;;;1.90;;
15616;SDS011;7908;51.688;7.130;2023-09-19T12:51:19;7.90;;;1.88;;
15616;SDS011;7908;51.688;7.130;2023-09-19T12:53:58;5.88;;;1.60;;
15616;SDS011;7908;51.688;7.130;2023-09-19T12:56:39;10.68;;;2.25;;
15616;SDS011;7908;51.688;7.130;2023-09-19T12:59:15;4.18;;;1.70;;
15616;SDS011;7908;51.688;7.130;2023-09-19T13:02:04;6.68;;;1.90;;
15616;SDS011;7908;51.688;7.130;2023-09-19T13:04:52;6.10;;;2.05;;
15616;SDS011;7908;51.688;7.130;2023-09-19T13:07:44;7.32;;;2.45;;
15616;SDS011;7908;51.688;7.130;2023-09-19T13:10:19;7.75;;;2.50;;
15616;SDS011;7908;51.688;7.130;2023-09-19T13:16:03;6.88;;;2.35;;
15616;SDS011;7908;51.688;7.130;2023-09-19T13:18:55;7.10;;;2.20;;
15616;SDS011;7908;51.688;7.130;2023-09-19T13:21:41;9.93;;;2.75;;
15616;SDS011;7908;51.688;7.130;2023-09-19T13:24:20;6.63;;;2.13;;
15616;SDS011;7908;51.688;7.130;2023-09-19T13:27:05;7.97;;;2.77;;
15616;SDS011;7908;51.688;7.130;2023-09-19T13:29:37;4.93;;;2.00;;
15616;SDS011;7908;51.688;7.130;2023-09-19T13:32:12;5.03;;;2.33;;
15616;SDS011;7908;51.688;7.130;2023-09-19T13:34:48;5.37;;;2.10;;
15616;SDS011;7908;51.688;7.130;2023-09-19T13:37:27;5.80;;;2.00;;
15616;SDS011;7908;51.688;7.130;2023-09-19T13:39:59;4.30;;;1.70;;
15616;SDS011;7908;51.688;7.130;2023-09-19T13:42:31;4.53;;;1.70;;
15616;SDS011;7908;51.688;7.130;2023-09-19T13:45:08;5.90;;;1.63;;
15616;SDS011;7908;51.688;7.130;2023-09-19T13:47:49;7.60;;;1.73;;
15616;SDS011;7908;51.688;7.130;2023-09-19T13:50:24;8.65;;;1.60;;
15616;SDS011;7908;51.688;7.130;2023-09-19T13:52:56;6.47;;;1.50;;
15616;SDS011;7908;51.688;7.130;2023-09-19T13:55:33;6.38;;;1.40;;
15616;SDS011;7908;51.688;7.130;2023-09-19T13:58:06;8.23;;;2.03;;
15616;SDS011;7908;51.688;7.130;2023-09-19T14:00:40;7.82;;;2.08;;
15616;SDS011;7908;51.688;7.130;2023-09-19T14:03:16;5.45;;;2.50;;
15616;SDS011;7908;51.688;7.130;2023-09-19T14:05:47;8.77;;;2.78;;
15616;SDS011;7908;51.688;7.130;2023-09-19T14:08:20;5.97;;;2.08;;
15616;SDS011;7908;51.688;7.130;2023-09-19T14:10:57;5.40;;;2.30;;
15616;SDS011;7908;51.688;7.130;2023-09-19T14:13:27;5.03;;;1.98;;
15616;SDS011;7908;51.688;7.130;2023-09-19T14:16:02;7.15;;;1.45;;
15616;SDS011;7908;51.688;7.130;2023-09-19T14:18:38;5.82;;;1.80;;
15616;SDS011;7908;51.688;7.130;2023-09-19T14:21:11;9.02;;;1.95;;
15616;SDS011;7908;51.688;7.130;2023-09-19T14:23:55;6.22;;;3.53;;
15616;SDS011;7908;51.688;7.130;2023-09-19T14:26:36;4.15;;;2.13;;
15616;SDS011;7908;51.688;7.130;2023-09-19T14:29:12;5.30;;;2.30;;
15616;SDS011;7908;51.688;7.130;2023-09-19T14:31:47;5.75;;;1.88;;
15616;SDS011;7908;51.688;7.130;2023-09-19T14:34:24;3.45;;;1.70;;
15616;SDS011;7908;51.688;7.130;2023-09-19T14:37:02;5.10;;;1.40;;
15616;SDS011;7908;51.688;7.130;2023-09-19T14:39:35;4.68;;;1.90;;
15616;SDS011;7908;51.688;7.130;2023-09-19T14:42:10;4.13;;;1.45;;
15616;SDS011;7908;51.688;7.130;2023-09-19T14:44:49;6.45;;;1.73;;
15616;SDS011;7908;51.688;7.130;2023-09-19T14:47:26;5.70;;;1.83;;
15616;SDS011;7908;51.688;7.130;2023-09-19T14:50:03;5.57;;;1.98;;
15616;SDS011;7908;51.688;7.130;2023-09-19T14:52:41;6.35;;;1.67;;
15616;SDS011;7908;51.688;7.130;2023-09-19T14:55:15;3.88;;;1.15;;
15616;SDS011;7908;51.688;7.130;2023-09-19T14:57:50;3.78;;;1.25;;
15616;SDS011;7908;51.688;7.130;2023-09-19T15:00:24;5.63;;;1.95;;
15616;SDS011;7908;51.688;7.130;2023-09-19T15:02:57;3.15;;;0.80;;
15616;SDS011;7908;51.688;7.130;2023-09-19T15:05:35;2.58;;;1.10;;
15616;SDS011;7908;51.688;7.130;2023-09-19T15:08:06;5.57;;;1.05;;
15616;SDS011;7908;51.688;7.130;2023-09-19T15:10:38;5.90;;;2.28;;
15616;SDS011;7908;51.688;7.130;2023-09-19T15:13:12;5.30;;;1.35;;
15616;SDS011;7908;51.688;7.130;2023-09-19T15:15:48;4.87;;;1.07;;
15616;SDS011;7908;51.688;7.130;2023-09-19T15:18:20;3.22;;;1.00;;
15616;SDS011;7908;51.688;7.130;2023-09-19T15:21:00;3.47;;;0.70;;
15616;SDS011;7908;51.688;7.130;2023-09-19T15:23:46;2.30;;;1.10;;
15616;SDS011;7908;51.688;7.130;2023-09-19T15:26:28;13.70;;;1.42;;
15616;SDS011;7908;51.688;7.130;2023-09-19T15:29:03;4.30;;;1.35;;
15616;SDS011;7908;51.688;7.130;2023-09-19T15:31:41;4.53;;;1.33;;
15616;SDS011;7908;51.688;7.130;2023-09-19T15:34:12;6.07;;;1.30;;
15616;SDS011;7908;51.688;7.130;2023-09-19T15:36:51;4.95;;;1.17;;
15616;SDS011;7908;51.688;7.130;2023-09-19T15:39:29;4.03;;;1.02;;
15616;SDS011;7908;51.688;7.130;2023-09-19T15:42:08;2.90;;;0.82;;
15616;SDS011;7908;51.688;7.130;2023-09-19T15:44:40;3.88;;;1.13;;
15616;SDS011;7908;51.688;7.130;2023-09-19T15:47:19;3.58;;;0.85;;
15616;SDS011;7908;51.688;7.130;2023-09-19T15:49:55;1.80;;;0.80;;
15616;SDS011;7908;51.688;7.130;2023-09-19T15:52:30;2.63;;;1.00;;
15616;SDS011;7908;51.688;7.130;2023-09-19T15:55:07;1.50;;;1.00;;
15616;SDS011;7908;51.688;7.130;2023-09-19T15:57:52;2.93;;;0.90;;